FQTT Airport Information

Runway Information
Runway 01 Length 8225 ft width 148 ft
Elevation 0 ft Threshold 0 ft Heading 2
Runway 19 Length 8225 ft Width 148 ft
Elevation 0 ft Threshold 0 ft Heading 182
Airport Frequencies
Type AFIS Name INFO Frequency 127.9 MHZ
Type TWR Name TWR Frequency 125.9 MHZ
Airport Navaids
Type NDB Name Tete Chingodzi Frequency 340 KHZ
Type VOR Name Tete Chingodzi Frequency 114100 KHZ
Airport Weather Information & NOTAM
ADDS - METARS form results

(1608 UTC 19 September 2020)
Data provider http://aviationweather.gov/metar/data/
 
Forecast for: FQTT (TETE/CHINGOZI , MZ)
Text: TAF FQTT 191600Z 1918/2018 17008KT CAVOK TX39/2013Z TN22/2003Z
Forecast period: 1800 UTC 19 September 2020 to 0900 UTC 20 September 2020
Forecast type: FROM: standard forecast or significant change
Winds: from the S (170 degrees) at 9 MPH (8 knots; 4.1 m/s)
Visibility: 6 or more miles (10+ km)
Ceiling: unknown
Clouds: missing
Weather: no significant weather forecast for this period
Text: BECMG 2009/2011 21008KT
Forecast period: 0900 to 1800 UTC 20 September 2020
Forecast type: BECOMING: Conditions expected to become as follows by 1100 UTC 20 September 2020
Winds: from the SSW (210 degrees) at 9 MPH (8 knots; 4.1 m/s)
Visibility: 6 or more miles (10+ km)
Ceiling: unknown
Clouds: missing
Weather: no significant weather forecast for this period